createdAt,value
2023-05-09T00:02:40.446Z,101135.75
2023-05-09T00:07:41.240Z,101128.84
2023-05-09T00:12:43.720Z,101129.69
2023-05-09T00:17:46.589Z,101121.88
2023-05-09T00:22:47.297Z,101123.63
2023-05-09T00:27:47.966Z,101117.56
2023-05-09T00:32:50.064Z,101120.16
2023-05-09T00:37:50.718Z,101112.38
2023-05-09T00:42:51.602Z,101109.78
2023-05-09T00:47:53.802Z,101101.97
2023-05-09T00:52:54.772Z,101099.38
2023-05-09T00:57:55.523Z,101108.03
2023-05-09T01:02:58.532Z,101092.44
2023-05-09T01:08:08.498Z,101095.03
2023-05-09T01:13:18.481Z,101090.72
2023-05-09T01:18:25.899Z,101087.25
2023-05-09T01:23:49.290Z,101082.91
2023-05-09T01:29:10.019Z,101072.53
2023-05-09T01:34:12.298Z,101069.03
2023-05-09T01:39:14.608Z,101069.06
2023-05-09T01:44:17.853Z,101069.91
2023-05-09T01:49:21.276Z,101070.75
2023-05-09T01:54:25.513Z,101070.75
2023-05-09T01:59:29.746Z,101063.81
2023-05-09T02:04:32.111Z,101063.81
2023-05-09T02:09:32.866Z,101049.97
2023-05-09T02:14:34.932Z,101053.41
2023-05-09T02:19:36.029Z,101055.97
2023-05-09T02:24:37.051Z,101052.50
2023-05-09T02:29:44.318Z,101055.13
2023-05-09T02:34:46.377Z,101050.75
2023-05-09T02:39:47.331Z,101052.47
2023-05-09T02:44:49.334Z,101050.75
2023-05-09T02:49:50.028Z,101045.56
2023-05-09T02:54:50.714Z,101047.28
2023-05-09T02:59:53.065Z,101053.31
2023-05-09T03:04:53.747Z,101045.50
2023-05-09T03:09:55.102Z,101051.56
2023-05-09T03:14:57.599Z,101039.44
2023-05-09T03:19:59.584Z,101043.75
2023-05-09T03:25:01.259Z,101039.38
2023-05-09T03:30:03.352Z,101046.34
2023-05-09T03:35:04.577Z,101035.97
2023-05-09T03:40:07.985Z,101030.75
2023-05-09T03:45:16.735Z,101031.59
2023-05-09T03:50:19.477Z,101021.22
2023-05-09T03:55:20.778Z,101022.97
2023-05-09T04:00:23.264Z,101014.34
2023-05-09T04:05:35.481Z,101021.28
2023-05-09T04:10:37.840Z,101018.69
2023-05-09T04:15:40.139Z,101018.69
2023-05-09T04:20:40.885Z,101020.44
2023-05-09T04:25:42.541Z,101016.13
2023-05-09T04:30:44.748Z,101011.81
2023-05-09T04:35:46.083Z,101017.03
2023-05-09T04:40:47.656Z,101012.69
2023-05-09T04:45:50.129Z,101002.34
2023-05-09T04:50:50.896Z,101004.06
2023-05-09T04:55:51.997Z,100999.78
2023-05-09T05:00:54.725Z,100992.84
2023-05-09T05:05:56.092Z,100977.28
2023-05-09T05:10:57.229Z,100995.44
2023-05-09T05:15:59.591Z,100993.69
2023-05-09T05:21:00.391Z,100991.94
2023-05-09T05:26:01.283Z,100980.66
2023-05-09T05:31:04.629Z,100982.38
2023-05-09T05:36:06.858Z,100989.28
2023-05-09T05:41:11.227Z,100984.03
2023-05-09T05:46:14.595Z,100976.19
2023-05-09T05:51:16.219Z,100984.75
2023-05-09T05:56:17.984Z,100981.25
2023-05-09T06:01:20.307Z,100980.34
2023-05-09T06:06:21.878Z,100972.50
2023-05-09T06:11:22.725Z,100952.41
2023-05-09T06:16:24.838Z,100955.69
2023-05-09T06:21:26.322Z,100945.22
2023-05-09T06:26:27.255Z,100946.81
2023-05-09T06:31:29.715Z,100933.66
2023-05-09T06:36:30.584Z,100933.53
2023-05-09T06:41:31.221Z,100928.16
2023-05-09T06:46:33.314Z,100924.50
2023-05-09T06:51:34.054Z,100920.06
2023-05-09T06:56:34.769Z,100908.53
2023-05-09T07:01:36.844Z,100911.03
2023-05-09T07:06:37.573Z,100899.56
2023-05-09T07:11:38.574Z,100886.06
2023-05-09T07:16:40.609Z,100874.63
2023-05-09T07:21:41.304Z,100878.81
2023-05-09T07:26:41.953Z,100870.97
2023-05-09T07:31:44.013Z,100870.91
2023-05-09T07:36:44.661Z,100857.75
2023-05-09T07:41:45.980Z,100858.38
2023-05-09T07:46:49.756Z,100839.50
2023-05-09T07:51:50.589Z,100841.66
2023-05-09T07:56:51.273Z,100838.06
2023-05-09T08:01:53.325Z,100827.16
2023-05-09T08:06:54.005Z,100814.81
2023-05-09T08:11:54.667Z,100818.09
2023-05-09T08:16:56.726Z,100828.31
2023-05-09T08:21:57.401Z,100819.41
2023-05-09T08:26:58.069Z,100806.94
2023-05-09T08:32:00.170Z,100795.31
2023-05-09T08:37:00.864Z,100792.59
2023-05-09T08:42:02.777Z,100790.94
2023-05-09T08:47:05.851Z,100786.25
2023-05-09T08:52:06.965Z,100784.09
2023-05-09T08:57:07.737Z,100772.44
2023-05-09T09:02:13.722Z,100760.72
2023-05-09T09:07:16.188Z,100761.63
2023-05-09T09:12:17.612Z,100760.31
2023-05-09T09:17:22.400Z,100750.91
2023-05-09T09:22:23.792Z,100749.06
2023-05-09T09:27:24.443Z,100738.03
2023-05-09T09:32:34.101Z,100740.38
2023-05-09T09:37:36.348Z,100741.75
2023-05-09T09:42:44.090Z,100742.91
2023-05-09T09:47:47.310Z,100737.59
2023-05-09T09:52:52.032Z,100717.44
2023-05-09T09:57:53.109Z,100719.88
2023-05-09T10:02:56.868Z,100713.09
2023-05-09T10:07:59.074Z,100713.03
2023-05-09T10:13:01.558Z,100712.56
2023-05-09T10:18:04.650Z,100701.56
2023-05-09T10:23:07.033Z,100680.00
2023-05-09T10:28:13.568Z,100676.94
2023-05-09T10:33:17.428Z,100673.06
2023-05-09T10:38:19.663Z,100668.97
2023-05-09T10:43:24.001Z,100648.88
2023-05-09T10:48:26.663Z,100653.31
2023-05-09T10:53:42.398Z,100638.19
2023-05-09T10:58:43.072Z,100624.78
2023-05-09T11:04:11.454Z,100620.97
2023-05-09T11:09:38.051Z,100608.97
2023-05-09T11:14:44.539Z,100601.19
2023-05-09T11:20:06.547Z,100592.09
2023-05-09T11:25:09.631Z,100592.72
2023-05-09T11:30:14.173Z,100576.91
2023-05-09T11:35:18.029Z,100557.44
2023-05-09T11:40:20.085Z,100551.91
2023-05-09T11:45:21.601Z,100543.59
2023-05-09T11:50:23.759Z,100540.81
2023-05-09T11:55:25.675Z,100539.22
2023-05-09T12:00:27.095Z,100524.50
2023-05-09T12:05:29.333Z,100501.72
2023-05-09T12:10:30.036Z,100496.88
2023-05-09T12:15:30.975Z,100496.09
2023-05-09T12:20:43.350Z,100498.50
2023-05-09T12:25:49.821Z,100482.38
2023-05-09T12:30:51.584Z,100475.38
2023-05-09T12:36:05.758Z,100471.91
2023-05-09T12:41:15.363Z,100473.19
2023-05-09T12:46:28.780Z,100456.97
2023-05-09T12:51:31.046Z,100451.50
2023-05-09T12:56:35.305Z,100441.97
2023-05-09T13:01:37.010Z,100434.97
2023-05-09T13:06:49.039Z,100431.97
2023-05-09T13:11:50.872Z,100415.88
2023-05-09T13:16:51.595Z,100411.75
2023-05-09T13:21:55.634Z,100400.13
2023-05-09T13:26:56.302Z,100383.72
2023-05-09T13:31:57.021Z,100388.16
2023-05-09T13:36:59.106Z,100367.88
2023-05-09T13:41:59.877Z,100354.25
2023-05-09T13:47:00.708Z,100340.03
2023-05-09T13:52:02.815Z,100335.31
2023-05-09T13:57:03.909Z,100333.25
2023-05-09T14:02:04.796Z,100327.88
2023-05-09T14:07:06.981Z,100312.94
2023-05-09T14:12:08.018Z,100306.28
2023-05-09T14:17:08.737Z,100290.38
2023-05-09T14:22:10.785Z,100292.94
2023-05-09T14:27:11.485Z,100289.00
2023-05-09T14:32:12.880Z,100278.66
2023-05-09T14:37:14.914Z,100276.28
2023-05-09T14:42:16.688Z,100275.97
2023-05-09T14:47:17.724Z,100258.25
2023-05-09T14:52:19.786Z,100254.75
2023-05-09T14:57:20.694Z,100248.91
2023-05-09T15:02:21.409Z,100243.44
2023-05-09T15:07:23.878Z,100232.59
2023-05-09T15:12:24.578Z,100226.06
2023-05-09T15:17:25.291Z,100227.41
2023-05-09T15:22:27.518Z,100224.09
2023-05-09T15:27:28.222Z,100217.91
2023-05-09T15:32:29.353Z,100213.06
2023-05-09T15:37:32.379Z,100199.81
2023-05-09T15:42:33.977Z,100208.50
2023-05-09T15:47:34.754Z,100206.03
2023-05-09T15:52:37.262Z,100196.31
2023-05-09T15:57:37.925Z,100191.47
2023-05-09T16:02:38.695Z,100190.19
2023-05-09T16:07:44.099Z,100184.13
2023-05-09T16:12:44.811Z,100174.84
2023-05-09T16:17:45.748Z,100161.44
2023-05-09T16:22:47.781Z,100155.19
2023-05-09T16:27:48.461Z,100173.50
2023-05-09T16:32:49.242Z,100152.78
2023-05-09T16:37:51.394Z,100147.06
2023-05-09T16:42:53.657Z,100141.78
2023-05-09T16:47:55.723Z,100134.91
2023-05-09T16:52:57.910Z,100135.22
2023-05-09T16:58:00.055Z,100125.34
2023-05-09T17:03:01.630Z,100113.81
2023-05-09T17:08:04.237Z,100110.09
2023-05-09T17:13:08.690Z,100117.06
2023-05-09T17:18:09.702Z,100106.78
2023-05-09T17:23:11.753Z,100102.34
2023-05-09T17:28:12.463Z,100094.47
2023-05-09T17:33:13.248Z,100095.31
2023-05-09T17:38:15.346Z,100094.22
2023-05-09T17:43:16.096Z,100094.63
2023-05-09T17:48:16.958Z,100093.53
2023-05-09T17:53:18.997Z,100090.41
2023-05-09T17:58:20.841Z,100090.06
2023-05-09T18:03:21.701Z,100097.84
2023-05-09T18:08:23.861Z,100092.53
2023-05-09T18:13:24.809Z,100089.50
2023-05-09T18:18:26.261Z,100094.19
2023-05-09T18:23:28.582Z,100094.25
2023-05-09T18:28:29.287Z,100090.78
2023-05-09T18:33:30.082Z,100096.44
2023-05-09T18:38:34.660Z,100091.84
2023-05-09T18:43:35.452Z,100088.22
2023-05-09T18:48:36.184Z,100098.44
2023-05-09T18:53:38.808Z,100093.91
2023-05-09T18:58:39.896Z,100100.44
2023-05-09T19:03:45.369Z,100098.72
2023-05-09T19:08:48.008Z,100088.56
2023-05-09T19:13:49.486Z,100087.31
2023-05-09T19:18:50.299Z,100083.06
2023-05-09T19:23:52.611Z,100073.91
2023-05-09T19:28:53.745Z,100070.59
2023-05-09T19:33:54.432Z,100067.25
2023-05-09T19:38:56.507Z,100074.16
2023-05-09T19:43:57.403Z,100065.38
2023-05-09T19:48:58.162Z,100065.56
2023-05-09T19:54:00.469Z,100066.66
2023-05-09T19:59:01.340Z,100069.91
2023-05-09T20:04:02.094Z,100060.47
2023-05-09T20:09:04.747Z,100066.75
2023-05-09T20:14:05.622Z,100064.63
2023-05-09T20:19:07.638Z,100063.56
2023-05-09T20:24:11.746Z,100053.19
2023-05-09T20:29:12.808Z,100053.19
2023-05-09T20:34:16.183Z,100052.38
2023-05-09T20:39:18.710Z,100043.13
2023-05-09T20:44:20.037Z,100038.13
2023-05-09T20:49:20.758Z,100027.09
2023-05-09T20:54:24.016Z,100025.06
2023-05-09T20:59:24.724Z,100029.03
2023-05-09T21:04:25.752Z,100025.41
2023-05-09T21:09:27.857Z,100019.03
2023-05-09T21:14:28.521Z,100015.16
2023-05-09T21:19:29.249Z,100002.31
2023-05-09T21:24:31.309Z,99994.63
2023-05-09T21:29:33.565Z,99990.78
2023-05-09T21:34:34.270Z,99992.69
2023-05-09T21:39:36.302Z,99992.91
2023-05-09T21:44:37.133Z,99984.94
2023-05-09T21:49:37.792Z,99989.53
2023-05-09T21:54:39.834Z,99977.81
2023-05-09T21:59:40.544Z,99978.41
2023-05-09T22:04:41.208Z,99971.97
2023-05-09T22:09:43.245Z,99969.56
2023-05-09T22:14:53.026Z,99973.00
2023-05-09T22:19:56.740Z,99962.81
2023-05-09T22:24:58.724Z,99959.28
2023-05-09T22:30:01.435Z,99952.75
2023-05-09T22:35:02.304Z,99948.47
2023-05-09T22:40:05.140Z,99949.28
2023-05-09T22:45:07.349Z,99942.56
2023-05-09T22:50:09.465Z,99943.63
2023-05-09T22:55:11.737Z,99931.69
2023-05-09T23:00:13.733Z,99932.25
2023-05-09T23:05:14.697Z,99921.28
2023-05-09T23:10:16.950Z,99915.34
2023-05-09T23:15:17.851Z,99909.53
2023-05-09T23:20:18.683Z,99906.06
2023-05-09T23:25:21.022Z,99898.41
2023-05-09T23:30:21.775Z,99898.50
2023-05-09T23:35:22.612Z,99898.09
2023-05-09T23:40:24.707Z,99888.41
2023-05-09T23:45:25.580Z,99892.00
2023-05-09T23:50:26.228Z,99885.34
2023-05-09T23:55:28.340Z,99872.00
